Time;durP1;ratioP1;P1;durP2;ratioP2;P2;SDS_P1;SDS_P2;PMS_P1;PMS_P2;Temp;Humidity;BMP_temperature;BMP_pressure;BME280_temperature;BME280_humidity;BME280_pressure;Samples;Min_cycle;Max_cycle;Signal;HPM_P1;HPM_P2
2022/11/10 00:01:51;;;;;;;0.55;0.50;;;18.20;70.20;;;;;;5016493;28;20406;-21
2022/11/10 00:04:17;;;;;;;0.60;0.60;;;18.20;70.30;;;;;;5015387;28;20052;-22
2022/11/10 00:06:44;;;;;;;0.93;0.55;;;18.20;70.30;;;;;;5009655;28;20034;-21
2022/11/10 00:09:10;;;;;;;0.40;0.30;;;18.20;70.30;;;;;;5018633;28;20498;-21
2022/11/10 00:11:36;;;;;;;0.30;0.30;;;18.20;70.40;;;;;;5014705;28;20445;-20
2022/11/10 00:17:00;;;;;;;0.43;0.25;;;18.20;70.40;;;;;;5004813;28;20113;-21
2022/11/10 00:19:30;;;;;;;0.30;0.22;;;18.20;70.40;;;;;;4988135;28;20073;-20
2022/11/10 00:21:55;;;;;;;0.52;0.40;;;18.20;71.20;;;;;;4992341;28;20043;-21
2022/11/10 00:24:21;;;;;;;0.60;0.60;;;18.10;70.40;;;;;;4999596;28;20435;-21
2022/11/10 00:26:47;;;;;;;0.50;0.50;;;18.10;70.40;;;;;;5010510;28;20042;-21
2022/11/10 00:29:12;;;;;;;0.50;0.50;;;18.10;70.40;;;;;;5011354;28;20033;-20
2022/11/10 00:31:38;;;;;;;0.40;0.40;;;18.10;71.20;;;;;;5013553;28;20030;-21
2022/11/10 00:34:04;;;;;;;0.50;0.50;;;18.10;70.40;;;;;;5011347;28;20072;-21
2022/11/10 00:36:29;;;;;;;0.30;0.30;;;18.10;70.40;;;;;;5011873;28;20042;-21
2022/11/10 00:38:55;;;;;;;0.30;0.30;;;18.10;70.40;;;;;;5011231;28;20128;-21
2022/11/10 00:41:21;;;;;;;0.40;0.40;;;18.10;70.40;;;;;;4996441;28;20112;-21
2022/11/10 00:43:46;;;;;;;0.40;0.40;;;18.10;70.40;;;;;;4996096;28;20066;-21
2022/11/10 00:46:12;;;;;;;0.40;0.40;;;18.10;70.30;;;;;;4995554;28;20041;-21
2022/11/10 00:48:38;;;;;;;0.55;0.55;;;18.10;70.40;;;;;;4999453;28;20572;-21
2022/11/10 00:51:04;;;;;;;0.68;0.50;;;18.20;70.40;;;;;;5005501;28;20042;-21
2022/11/10 00:53:29;;;;;;;0.43;0.40;;;18.10;70.20;;;;;;5016823;28;20049;-21
2022/11/10 00:55:55;;;;;;;0.82;0.50;;;18.10;70.30;;;;;;5009344;28;20060;-21
2022/11/10 00:58:20;;;;;;;0.73;0.50;;;18.10;71.00;;;;;;5007193;28;20528;-21
2022/11/10 01:00:46;;;;;;;0.40;0.40;;;18.10;70.10;;;;;;5014997;28;20042;-20
2022/11/10 01:03:15;;;;;;;0.43;0.43;;;18.10;70.10;;;;;;5014070;28;20113;-23
2022/11/10 01:05:41;;;;;;;0.75;0.60;;;18.10;70.80;;;;;;5008094;28;20044;-22
2022/11/10 01:08:06;;;;;;;0.40;0.35;;;18.10;70.90;;;;;;5009529;28;20132;-21
2022/11/10 01:10:32;;;;;;;0.32;0.32;;;18.20;69.80;;;;;;5008540;28;20046;-21
2022/11/10 01:12:57;;;;;;;0.40;0.40;;;18.20;69.80;;;;;;5001299;28;20560;-20
2022/11/10 01:15:23;;;;;;;0.63;0.50;;;18.20;70.00;;;;;;4993690;28;20042;-21
2022/11/10 01:17:49;;;;;;;0.50;0.50;;;18.10;70.10;;;;;;5001896;28;20052;-21
2022/11/10 01:20:15;;;;;;;0.47;0.47;;;18.20;70.00;;;;;;5009170;28;20190;-21
2022/11/10 01:22:40;;;;;;;0.75;0.50;;;18.10;69.90;;;;;;5016285;28;20045;-28
2022/11/10 01:25:07;;;;;;;0.57;0.45;;;18.10;69.90;;;;;;5013125;28;20038;-21
2022/11/10 01:27:33;;;;;;;0.50;0.40;;;18.20;69.60;;;;;;5001458;28;20046;-21
2022/11/10 01:29:58;;;;;;;0.77;0.77;;;18.20;69.60;;;;;;5013045;28;20442;-20
2022/11/10 01:32:24;;;;;;;0.68;0.60;;;18.30;69.40;;;;;;5011470;28;20137;-21
2022/11/10 01:34:49;;;;;;;0.70;0.50;;;18.20;69.60;;;;;;4998553;28;20096;-20
2022/11/10 01:37:15;;;;;;;0.45;0.45;;;18.20;69.70;;;;;;5003435;28;20041;-21
2022/11/10 01:39:40;;;;;;;0.45;0.45;;;18.10;69.90;;;;;;5015962;28;20103;-20
2022/11/10 01:42:06;;;;;;;0.50;0.50;;;18.20;69.70;;;;;;5011759;28;20043;-21
2022/11/10 01:44:33;;;;;;;0.70;0.70;;;18.10;69.80;;;;;;5006270;28;20144;-22
2022/11/10 01:46:59;;;;;;;0.43;0.40;;;18.20;69.60;;;;;;5011993;28;20037;-20
2022/11/10 01:49:25;;;;;;;0.30;0.30;;;18.20;69.60;;;;;;5007954;28;20053;-21
2022/11/10 01:51:59;;;;;;;0.40;0.40;;;18.10;69.90;;;;;;5004490;28;20045;-21
2022/11/10 01:54:27;;;;;;;0.50;0.50;;;18.10;69.90;;;;;;5012428;28;20042;-21
2022/11/10 01:56:54;;;;;;;0.50;0.50;;;18.10;69.90;;;;;;4998450;28;20053;-21
2022/11/10 01:59:25;;;;;;;0.60;0.60;;;18.10;69.90;;;;;;4997932;28;20077;-21
2022/11/10 02:01:52;;;;;;;0.40;0.40;;;18.00;70.90;;;;;;5005064;28;20554;-21
2022/11/10 02:04:18;;;;;;;0.40;0.40;;;18.10;70.00;;;;;;4998619;28;20414;-20
2022/11/10 02:06:44;;;;;;;0.40;0.40;;;18.10;70.00;;;;;;4998909;28;20048;-20
2022/11/10 02:09:10;;;;;;;0.52;0.52;;;18.10;70.00;;;;;;5015035;28;22084;-22
2022/11/10 02:11:36;;;;;;;0.40;0.40;;;18.10;69.90;;;;;;5013876;28;20068;-21
2022/11/10 02:14:02;;;;;;;0.50;0.50;;;18.10;70.50;;;;;;5010439;28;20050;-21
2022/11/10 02:16:27;;;;;;;0.65;0.65;;;18.20;69.50;;;;;;5024859;28;20068;-22
2022/11/10 02:18:53;;;;;;;0.40;0.40;;;18.20;69.80;;;;;;5010231;28;20049;-21
2022/11/10 02:21:19;;;;;;;0.63;0.50;;;18.10;69.80;;;;;;5008746;28;20073;-21
2022/11/10 02:23:46;;;;;;;0.50;0.50;;;18.10;69.90;;;;;;5005989;28;20061;-21
2022/11/10 02:26:12;;;;;;;1.95;0.60;;;18.10;69.90;;;;;;4998437;28;20154;-20
2022/11/10 02:28:38;;;;;;;0.45;0.45;;;18.00;70.00;;;;;;4992900;28;20042;-21
2022/11/10 02:31:04;;;;;;;0.60;0.60;;;18.00;70.20;;;;;;4994743;28;20070;-19
2022/11/10 02:33:29;;;;;;;0.60;0.50;;;18.00;70.30;;;;;;4992000;28;20504;-28
2022/11/10 02:35:55;;;;;;;0.63;0.50;;;18.00;70.30;;;;;;4991832;28;20046;-21
2022/11/10 02:38:21;;;;;;;0.50;0.50;;;18.00;70.10;;;;;;4991437;28;20058;-20
2022/11/10 02:40:48;;;;;;;1.27;0.50;;;18.10;70.00;;;;;;4994165;28;20049;-22
2022/11/10 02:43:14;;;;;;;0.63;0.40;;;18.00;70.10;;;;;;4993539;28;20099;-20
2022/11/10 02:45:45;;;;;;;0.68;0.45;;;18.00;70.10;;;;;;4997555;28;20137;-21
2022/11/10 02:48:11;;;;;;;0.60;0.60;;;18.00;70.20;;;;;;5016144;28;20049;-23
2022/11/10 02:50:37;;;;;;;0.57;0.57;;;18.10;70.10;;;;;;5014213;28;20041;-21
2022/11/10 02:53:03;;;;;;;0.40;0.40;;;18.00;70.20;;;;;;4999760;28;20077;-20
2022/11/10 02:55:28;;;;;;;0.50;0.50;;;18.00;70.30;;;;;;5014125;28;20104;-21
2022/11/10 02:57:54;;;;;;;0.57;0.50;;;18.00;70.30;;;;;;5013430;28;20805;-21
2022/11/10 03:00:20;;;;;;;0.82;0.50;;;18.00;70.40;;;;;;5007332;28;20117;-21
2022/11/10 03:02:45;;;;;;;0.40;0.40;;;18.00;70.40;;;;;;5013902;28;20053;-20
2022/11/10 03:05:11;;;;;;;0.50;0.50;;;18.00;70.40;;;;;;5007606;28;20041;-20
2022/11/10 03:07:37;;;;;;;0.40;0.40;;;18.00;70.30;;;;;;5011648;28;20034;-20
2022/11/10 03:10:03;;;;;;;0.40;0.40;;;18.00;70.30;;;;;;5008520;28;20048;-27
2022/11/10 03:12:29;;;;;;;0.75;0.75;;;17.90;70.40;;;;;;5007706;28;20061;-20
2022/11/10 03:14:54;;;;;;;0.50;0.50;;;17.90;70.30;;;;;;5005852;28;20046;-20
2022/11/10 03:17:20;;;;;;;0.50;0.50;;;18.00;70.40;;;;;;5010795;28;20122;-21
2022/11/10 03:19:46;;;;;;;0.77;0.70;;;17.90;70.30;;;;;;5009266;28;20045;-21
2022/11/10 03:22:11;;;;;;;0.50;0.50;;;17.90;70.30;;;;;;5009695;28;20041;-20
2022/11/10 03:24:37;;;;;;;0.38;0.38;;;17.90;70.50;;;;;;5004443;28;20045;-21
2022/11/10 03:27:02;;;;;;;0.38;0.38;;;17.90;70.30;;;;;;5011218;28;20042;-21
2022/11/10 03:29:28;;;;;;;0.50;0.50;;;17.90;70.40;;;;;;5007968;28;20049;-21
2022/11/10 03:31:54;;;;;;;0.57;0.57;;;17.90;70.30;;;;;;5014462;28;20033;-21
2022/11/10 03:34:19;;;;;;;0.40;0.40;;;17.90;70.40;;;;;;5007662;28;20096;-20
2022/11/10 03:36:45;;;;;;;0.50;0.50;;;17.90;70.40;;;;;;5013052;28;20538;-21
2022/11/10 03:39:10;;;;;;;0.40;0.40;;;17.90;70.50;;;;;;5008440;28;20070;-21
2022/11/10 03:41:36;;;;;;;0.73;0.50;;;17.90;70.40;;;;;;5001230;28;20053;-20
2022/11/10 03:44:01;;;;;;;0.50;0.50;;;17.90;70.30;;;;;;5014038;28;20044;-21
2022/11/10 03:46:27;;;;;;;0.60;0.60;;;17.90;70.40;;;;;;4997789;28;20537;-21
2022/11/10 03:48:52;;;;;;;0.85;0.60;;;17.90;70.40;;;;;;4997506;28;20041;-21
2022/11/10 03:51:18;;;;;;;1.13;0.60;;;18.00;70.00;;;;;;5006193;28;20062;-21
2022/11/10 03:53:43;;;;;;;0.50;0.50;;;18.00;69.90;;;;;;5005896;28;20050;-20
2022/11/10 03:56:09;;;;;;;0.40;0.40;;;17.90;70.00;;;;;;5011091;28;20061;-20
2022/11/10 03:58:35;;;;;;;0.50;0.50;;;17.90;70.40;;;;;;5010225;28;20566;-21
2022/11/10 04:01:01;;;;;;;0.77;0.50;;;17.90;70.30;;;;;;5004717;28;20039;-21
2022/11/10 04:03:26;;;;;;;0.43;0.40;;;17.90;70.50;;;;;;5011664;28;20102;-21
2022/11/10 04:16:49;;;;;;;0.40;0.40;;;17.90;70.40;;;;;;5012612;28;20362;-21
2022/11/10 04:19:14;;;;;;;0.38;0.38;;;17.90;70.50;;;;;;5005643;28;20561;-28
2022/11/10 04:21:40;;;;;;;0.40;0.40;;;17.80;70.40;;;;;;5005359;28;20061;-20
2022/11/10 04:24:06;;;;;;;0.47;0.40;;;17.80;70.50;;;;;;5006167;28;20045;-20
2022/11/10 04:26:32;;;;;;;0.40;0.40;;;17.80;70.50;;;;;;5002171;28;20042;-21
2022/11/10 04:29:02;;;;;;;0.50;0.50;;;17.80;70.60;;;;;;5010451;28;20126;-21
2022/11/10 04:31:29;;;;;;;0.40;0.38;;;17.80;70.50;;;;;;5018134;28;20041;-20
2022/11/10 04:33:55;;;;;;;0.70;0.60;;;17.80;70.50;;;;;;5010738;28;20072;-20
2022/11/10 04:36:22;;;;;;;0.45;0.45;;;17.80;70.60;;;;;;5013231;28;20406;-21
2022/11/10 04:38:47;;;;;;;0.40;0.40;;;17.80;70.60;;;;;;4996138;28;20050;-25
2022/11/10 04:41:13;;;;;;;0.30;0.30;;;17.80;70.40;;;;;;5011582;28;20104;-20
2022/11/10 04:43:39;;;;;;;0.30;0.30;;;17.80;70.30;;;;;;5010217;28;20046;-20
2022/11/10 04:46:05;;;;;;;0.50;0.50;;;17.80;70.10;;;;;;5006359;28;20056;-20
2022/11/10 04:48:31;;;;;;;0.32;0.32;;;17.80;70.20;;;;;;5014253;28;20115;-20
2022/11/10 04:51:01;;;;;;;0.30;0.30;;;17.80;70.20;;;;;;5011197;28;20053;-21
2022/11/10 04:53:27;;;;;;;0.50;0.50;;;17.90;70.30;;;;;;5010689;28;20042;-21
2022/11/10 04:55:52;;;;;;;0.60;0.52;;;17.80;70.30;;;;;;5018643;28;20033;-21
2022/11/10 04:58:18;;;;;;;0.30;0.30;;;17.80;70.40;;;;;;5022557;28;20049;-21
2022/11/10 05:00:43;;;;;;;0.40;0.40;;;17.80;70.50;;;;;;5016367;28;20517;-20
2022/11/10 05:03:09;;;;;;;0.30;0.30;;;17.80;70.50;;;;;;5012427;28;20157;-20
2022/11/10 05:05:35;;;;;;;0.43;0.43;;;17.80;70.40;;;;;;5014061;28;20040;-25
2022/11/10 05:08:01;;;;;;;0.45;0.40;;;17.70;70.40;;;;;;5014615;28;20045;-21
2022/11/10 05:10:27;;;;;;;0.40;0.40;;;17.80;70.40;;;;;;5017116;28;20037;-21
2022/11/10 05:12:54;;;;;;;0.40;0.40;;;17.80;70.30;;;;;;5014905;28;20050;-20
2022/11/10 05:15:20;;;;;;;0.40;0.40;;;17.80;70.30;;;;;;5008420;28;20037;-20
2022/11/10 05:17:52;;;;;;;0.22;0.22;;;17.80;71.10;;;;;;5007517;28;20100;-20
2022/11/10 05:20:18;;;;;;;0.52;0.40;;;17.70;70.30;;;;;;5012949;28;20056;-21
2022/11/10 05:23:36;;;;;;;0.30;0.30;;;17.80;70.30;;;;;;5004763;28;20577;-23
2022/11/10 05:25:34;;;;;;;0.40;0.40;;;17.80;70.30;;;;;;4995032;28;20062;-22
2022/11/10 05:28:00;;;;;;;0.20;0.20;;;17.70;70.40;;;;;;4997304;28;20104;-22
2022/11/10 05:30:26;;;;;;;0.40;0.40;;;17.70;70.30;;;;;;4978011;28;20050;-24
2022/11/10 05:32:51;;;;;;;0.40;0.40;;;17.80;70.40;;;;;;4993138;28;20046;-20
2022/11/10 05:35:17;;;;;;;0.60;0.60;;;17.80;71.00;;;;;;4994288;28;20050;-21
2022/11/10 05:37:42;;;;;;;0.30;0.30;;;17.70;70.90;;;;;;4993766;28;20072;-20
2022/11/10 05:40:08;;;;;;;0.50;0.50;;;17.70;70.30;;;;;;4993870;28;20042;-20
2022/11/10 05:42:41;;;;;;;0.30;0.30;;;17.70;70.30;;;;;;4994012;28;20492;-21
2022/11/10 05:45:07;;;;;;;0.65;0.50;;;17.70;70.50;;;;;;4995060;28;20053;-26
2022/11/10 05:47:35;;;;;;;0.52;0.38;;;17.70;70.30;;;;;;4994263;28;20365;-29
2022/11/10 05:50:01;;;;;;;0.40;0.40;;;17.70;70.40;;;;;;5005829;28;20414;-21
2022/11/10 05:52:26;;;;;;;0.40;0.40;;;17.70;70.30;;;;;;5016723;28;20045;-22
2022/11/10 05:54:54;;;;;;;0.30;0.30;;;17.70;70.30;;;;;;5011527;28;20046;-21
2022/11/10 05:57:20;;;;;;;0.40;0.30;;;17.70;70.30;;;;;;5010287;28;20380;-21
2022/11/10 05:59:45;;;;;;;0.30;0.30;;;17.70;70.40;;;;;;5004280;28;20042;-21
2022/11/10 06:02:11;;;;;;;0.38;0.38;;;17.70;70.20;;;;;;4637490;28;9999970;-22
2022/11/10 06:04:36;;;;;;;0.40;0.40;;;17.70;70.20;;;;;;4979962;28;20554;-21
2022/11/10 06:07:02;;;;;;;0.30;0.30;;;17.70;70.20;;;;;;4979684;28;20646;-23
2022/11/10 06:09:27;;;;;;;0.32;0.30;;;17.70;70.00;;;;;;4983258;28;20130;-23
2022/11/10 06:11:53;;;;;;;0.40;0.40;;;17.70;70.10;;;;;;4991188;28;20050;-20
2022/11/10 06:14:19;;;;;;;0.68;0.40;;;17.70;70.30;;;;;;4995359;28;20046;-21
2022/11/10 06:16:44;;;;;;;0.35;0.35;;;17.70;70.30;;;;;;4997722;28;20054;-22
2022/11/10 06:19:10;;;;;;;0.30;0.30;;;17.70;70.30;;;;;;5002711;28;20478;-21
2022/11/10 06:21:36;;;;;;;0.50;0.50;;;17.70;70.30;;;;;;5000839;28;20050;-22
2022/11/10 06:24:01;;;;;;;0.52;0.52;;;17.70;70.30;;;;;;4999450;28;20050;-21
2022/11/10 06:26:27;;;;;;;1.10;0.77;;;17.70;70.30;;;;;;5004553;28;20076;-21
2022/11/10 06:28:52;;;;;;;1.30;1.20;;;17.80;70.20;;;;;;5005785;28;20054;-21
2022/11/10 06:31:18;;;;;;;1.30;1.20;;;17.80;70.30;;;;;;5000687;28;20089;-23
2022/11/10 06:33:44;;;;;;;1.17;1.08;;;17.90;70.20;;;;;;5009820;28;20167;-20
2022/11/10 06:36:09;;;;;;;1.20;1.05;;;17.80;70.20;;;;;;5003947;28;20051;-22
2022/11/10 06:38:35;;;;;;;1.08;0.95;;;17.80;70.10;;;;;;4991598;28;20042;-24
2022/11/10 06:41:00;;;;;;;1.52;1.23;;;17.80;70.40;;;;;;5006660;28;20509;-23
2022/11/10 06:43:26;;;;;;;1.27;1.17;;;17.80;70.30;;;;;;5004312;28;20046;-13
2022/11/10 06:45:51;;;;;;;1.00;1.00;;;17.90;70.10;;;;;;5002054;28;20089;-13
2022/11/10 06:48:17;;;;;;;1.60;1.20;;;17.90;70.10;;;;;;5003222;28;20045;-13
2022/11/10 06:50:43;;;;;;;1.48;1.38;;;17.90;70.30;;;;;;5000874;28;20045;-12
2022/11/10 06:53:08;;;;;;;1.60;1.50;;;17.90;70.30;;;;;;5005265;28;20405;-12
2022/11/10 06:55:34;;;;;;;1.50;1.40;;;17.90;70.40;;;;;;4997491;28;20095;-12
2022/11/10 06:58:00;;;;;;;1.15;1.10;;;17.90;70.40;;;;;;5007073;28;20465;-17
2022/11/10 07:00:27;;;;;;;1.42;1.27;;;17.90;70.40;;;;;;5007588;28;20049;-15
2022/11/10 07:03:04;;;;;;;1.50;1.38;;;17.90;70.40;;;;;;5008427;28;20811;-12
2022/11/10 07:05:31;;;;;;;1.50;1.38;;;17.90;70.50;;;;;;5008820;28;20049;-14
2022/11/10 07:08:04;;;;;;;2.40;1.50;;;18.00;71.00;;;;;;5003785;28;20050;-12
2022/11/10 07:10:29;;;;;;;1.42;1.30;;;18.00;70.50;;;;;;5008087;28;20052;-12
2022/11/10 07:12:58;;;;;;;1.92;1.40;;;18.00;70.30;;;;;;5009420;28;20053;-12
2022/11/10 07:15:24;;;;;;;1.20;1.10;;;17.90;70.40;;;;;;4990286;28;20088;-13
2022/11/10 07:17:50;;;;;;;1.10;1.00;;;17.90;70.60;;;;;;4981309;28;20065;-13
2022/11/10 07:20:15;;;;;;;1.23;1.13;;;17.90;70.40;;;;;;5000062;28;20103;-13
2022/11/10 07:22:41;;;;;;;2.35;1.20;;;17.90;70.10;;;;;;5007164;28;20069;-12
2022/11/10 07:25:07;;;;;;;1.33;1.10;;;17.90;70.00;;;;;;4998391;28;20103;-12
2022/11/10 07:27:32;;;;;;;0.90;0.90;;;17.80;69.80;;;;;;4992905;28;20038;-12
2022/11/10 07:29:58;;;;;;;1.20;1.10;;;17.80;69.10;;;;;;5002824;28;20038;-12
2022/11/10 07:32:23;;;;;;;0.80;0.80;;;17.70;69.30;;;;;;5006360;28;20042;-13
2022/11/10 07:34:49;;;;;;;2.15;1.30;;;17.70;68.60;;;;;;4998159;28;20042;-13
2022/11/10 07:37:14;;;;;;;1.25;1.15;;;17.70;69.20;;;;;;5012685;28;20034;-13
2022/11/10 07:39:40;;;;;;;1.00;1.00;;;17.70;68.80;;;;;;5012874;28;20053;-12
2022/11/10 07:42:06;;;;;;;1.08;0.98;;;17.70;68.60;;;;;;4993923;28;20392;-12
2022/11/10 07:44:31;;;;;;;0.93;0.93;;;17.80;68.80;;;;;;4992300;28;20042;-12
2022/11/10 07:46:57;;;;;;;1.05;1.05;;;17.90;68.80;;;;;;4991850;28;20411;-13
2022/11/10 07:49:22;;;;;;;1.20;1.10;;;17.90;68.50;;;;;;5000323;28;20077;-15
2022/11/10 07:51:48;;;;;;;1.20;1.08;;;17.80;69.00;;;;;;5012418;28;20050;-12
2022/11/10 07:54:14;;;;;;;1.27;1.17;;;17.80;69.10;;;;;;5005457;28;20041;-13
2022/11/10 07:56:41;;;;;;;1.05;0.98;;;17.80;69.50;;;;;;5003308;28;20597;-15
2022/11/10 07:59:06;;;;;;;0.93;0.93;;;17.70;69.70;;;;;;5001878;28;20057;-12
2022/11/10 08:01:32;;;;;;;0.70;0.70;;;17.70;69.70;;;;;;5006400;28;20042;-14
2022/11/10 08:03:58;;;;;;;1.70;0.82;;;17.70;69.90;;;;;;5007250;28;20057;-12
2022/11/10 08:06:24;;;;;;;1.05;0.93;;;17.70;69.60;;;;;;5014480;28;20041;-13
2022/11/10 08:08:49;;;;;;;0.80;0.75;;;17.70;69.50;;;;;;5012469;28;20049;-20
2022/11/10 08:11:15;;;;;;;1.15;1.05;;;17.70;69.50;;;;;;5010851;28;20137;-13
2022/11/10 08:13:41;;;;;;;1.05;1.05;;;17.80;70.40;;;;;;5015312;28;20541;-12
2022/11/10 08:16:06;;;;;;;0.80;0.80;;;17.70;69.60;;;;;;5018005;28;20041;-12
2022/11/10 08:18:32;;;;;;;0.70;0.70;;;17.70;69.70;;;;;;5013933;28;20041;-13
2022/11/10 08:21:00;;;;;;;1.10;1.00;;;17.70;69.70;;;;;;5016315;28;20061;-16
2022/11/10 08:23:27;;;;;;;1.17;0.63;;;17.70;69.80;;;;;;5002682;28;20108;-13
2022/11/10 08:25:53;;;;;;;0.75;0.75;;;17.70;69.90;;;;;;5010025;28;20053;-12
2022/11/10 08:28:18;;;;;;;0.77;0.77;;;17.70;69.80;;;;;;5015669;28;20034;-13
2022/11/10 08:30:45;;;;;;;0.60;0.60;;;17.70;69.80;;;;;;5015330;28;20053;-12
2022/11/10 08:33:12;;;;;;;0.95;0.80;;;17.70;69.70;;;;;;5011751;28;20073;-12
2022/11/10 08:35:39;;;;;;;0.68;0.68;;;17.70;69.60;;;;;;5015655;28;20038;-12
2022/11/10 08:38:09;;;;;;;0.65;0.65;;;17.70;69.50;;;;;;5000253;28;20057;-13
2022/11/10 08:40:34;;;;;;;0.90;0.77;;;17.70;69.50;;;;;;4994100;28;20049;-12
2022/11/10 08:43:00;;;;;;;0.70;0.70;;;17.70;69.50;;;;;;4996511;28;20038;-13
2022/11/10 08:45:26;;;;;;;0.77;0.77;;;17.70;69.40;;;;;;4994465;28;20042;-12
2022/11/10 08:47:58;;;;;;;0.80;0.80;;;17.80;69.30;;;;;;4995761;28;20085;-13
2022/11/10 08:50:25;;;;;;;0.60;0.60;;;17.80;69.30;;;;;;5004086;28;20045;-13
2022/11/10 08:52:50;;;;;;;0.73;0.73;;;17.70;69.20;;;;;;5015426;28;20050;-13
2022/11/10 08:55:18;;;;;;;0.70;0.70;;;17.80;69.20;;;;;;5009125;28;20099;-15
2022/11/10 08:57:44;;;;;;;1.20;0.93;;;17.80;69.20;;;;;;5009827;28;20041;-13
2022/11/10 09:00:10;;;;;;;1.67;0.98;;;17.70;69.20;;;;;;5016754;28;20041;-12
2022/11/10 09:02:36;;;;;;;0.88;0.88;;;17.80;69.10;;;;;;5017285;28;20482;-13
2022/11/10 09:05:01;;;;;;;0.90;0.80;;;17.80;69.00;;;;;;5015175;28;20125;-13
2022/11/10 09:07:27;;;;;;;0.93;0.93;;;17.80;69.10;;;;;;5015393;28;20503;-12
2022/11/10 09:09:52;;;;;;;0.68;0.68;;;17.90;69.00;;;;;;5017620;28;20136;-12
2022/11/10 09:12:18;;;;;;;0.95;0.80;;;17.90;69.00;;;;;;5014492;28;20045;-19
2022/11/10 09:14:43;;;;;;;0.60;0.60;;;17.90;69.10;;;;;;5019112;28;20125;-12
2022/11/10 09:17:09;;;;;;;1.30;0.77;;;17.90;69.10;;;;;;5014375;28;20038;-12
2022/11/10 09:19:34;;;;;;;0.60;0.60;;;17.90;69.00;;;;;;5011752;28;20068;-12
2022/11/10 09:22:00;;;;;;;0.68;0.68;;;17.90;68.90;;;;;;5019772;28;20045;-12
2022/11/10 09:24:25;;;;;;;0.73;0.73;;;17.90;69.00;;;;;;5014587;28;20068;-12
2022/11/10 09:26:51;;;;;;;0.60;0.60;;;18.00;69.00;;;;;;5015540;28;20037;-13
2022/11/10 09:29:17;;;;;;;1.02;0.63;;;18.00;69.00;;;;;;5021756;28;20037;-14
2022/11/10 09:31:44;;;;;;;0.68;0.68;;;17.90;69.10;;;;;;5015660;28;20041;-12
2022/11/10 09:34:09;;;;;;;0.65;0.65;;;17.90;69.10;;;;;;5014500;28;20085;-12
2022/11/10 09:36:35;;;;;;;0.75;0.70;;;17.90;69.20;;;;;;5014319;28;20093;-12
2022/11/10 09:39:00;;;;;;;0.70;0.70;;;18.20;68.40;;;;;;5013541;28;20564;-13
2022/11/10 09:41:28;;;;;;;0.70;0.70;;;18.50;67.70;;;;;;5013434;28;20111;-13
2022/11/10 09:44:03;;;;;;;0.60;0.60;;;18.60;67.90;;;;;;5015256;28;20410;-12
2022/11/10 09:46:50;;;;;;;0.70;0.70;;;18.60;67.10;;;;;;5016217;28;20041;-15
2022/11/10 09:49:22;;;;;;;0.55;0.55;;;18.70;66.90;;;;;;5019532;28;20124;-16
2022/11/10 09:51:47;;;;;;;0.60;0.50;;;18.80;66.70;;;;;;5013307;28;20092;-12
2022/11/10 09:54:42;;;;;;;1.75;0.88;;;18.70;67.50;;;;;;5017240;28;20054;-12
2022/11/10 09:57:12;;;;;;;0.63;0.63;;;18.80;66.70;;;;;;5011476;28;20099;-12
2022/11/10 09:59:37;;;;;;;0.77;0.70;;;18.90;66.50;;;;;;5013261;28;20089;-15
2022/11/10 10:02:11;;;;;;;0.65;0.60;;;18.90;66.50;;;;;;5015839;28;20038;-13
2022/11/10 10:04:54;;;;;;;0.60;0.60;;;18.90;66.20;;;;;;5013604;28;20034;-12
2022/11/10 10:07:48;;;;;;;0.75;0.75;;;18.90;66.30;;;;;;5009500;28;20381;-12
2022/11/10 10:10:41;;;;;;;0.57;0.57;;;18.80;66.60;;;;;;5009893;28;20049;-13
2022/11/10 10:13:44;;;;;;;0.40;0.40;;;18.80;66.70;;;;;;5015887;28;20049;-12
2022/11/10 10:16:27;;;;;;;0.50;0.50;;;18.70;67.20;;;;;;5013467;28;20042;-13
2022/11/10 10:18:58;;;;;;;4.05;0.70;;;18.80;66.70;;;;;;5024834;28;20077;-12
2022/11/10 10:21:49;;;;;;;0.50;0.50;;;18.90;66.70;;;;;;5013492;28;20033;-12
2022/11/10 10:24:16;;;;;;;0.65;0.65;;;18.80;66.90;;;;;;4994060;28;20041;-12
2022/11/10 10:26:52;;;;;;;0.50;0.50;;;18.80;67.10;;;;;;5001085;28;20458;-13
2022/11/10 10:29:22;;;;;;;0.55;0.55;;;18.80;67.10;;;;;;5011430;28;20774;-13
2022/11/10 10:31:49;;;;;;;0.55;0.55;;;18.90;66.80;;;;;;5012708;28;20116;-13
2022/11/10 10:34:16;;;;;;;0.40;0.40;;;18.80;67.00;;;;;;5012510;28;20049;-13
2022/11/10 10:36:43;;;;;;;0.50;0.50;;;18.80;67.20;;;;;;5012224;28;20119;-13
2022/11/10 10:39:17;;;;;;;0.70;0.70;;;18.90;67.10;;;;;;5012427;28;20304;-13
2022/11/10 10:41:45;;;;;;;0.57;0.50;;;18.70;67.30;;;;;;5011976;28;20121;-24
2022/11/10 10:44:13;;;;;;;0.52;0.52;;;18.70;67.50;;;;;;5011229;28;20383;-13
2022/11/10 10:47:09;;;;;;;0.50;0.40;;;18.70;67.40;;;;;;5010847;28;20088;-22
2022/11/10 10:49:35;;;;;;;0.40;0.40;;;18.70;67.40;;;;;;5012147;28;20034;-13
2022/11/10 10:52:14;;;;;;;0.52;0.50;;;18.70;67.70;;;;;;5011442;28;20104;-13
2022/11/10 10:54:39;;;;;;;0.35;0.35;;;18.70;67.70;;;;;;5013584;28;20042;-13
2022/11/10 10:57:24;;;;;;;1.40;0.60;;;18.60;67.90;;;;;;5012047;28;20423;-13
2022/11/10 10:59:49;;;;;;;;;;;18.60;67.90;;;;;;5009308;28;20038;-13
2022/11/10 11:02:25;;;;;;;0.40;0.40;;;18.60;68.00;;;;;;5028378;28;19988;-13
2022/11/10 11:05:07;;;;;;;0.55;0.55;;;18.60;68.00;;;;;;5013969;28;20041;-13
2022/11/10 11:07:33;;;;;;;0.50;0.50;;;18.60;68.00;;;;;;5008610;28;20034;-16
2022/11/10 11:09:59;;;;;;;0.40;0.40;;;18.70;68.00;;;;;;5012650;28;20032;-13
2022/11/10 11:12:26;;;;;;;0.30;0.30;;;18.70;68.10;;;;;;5009759;28;20723;-13
2022/11/10 11:15:10;;;;;;;0.70;0.50;;;18.70;68.00;;;;;;5020629;28;20053;-13
2022/11/10 11:17:36;;;;;;;1.05;0.60;;;18.70;68.00;;;;;;5019309;28;20034;-12
2022/11/10 11:20:02;;;;;;;0.50;0.50;;;18.70;68.00;;;;;;5014202;28;20116;-13
2022/11/10 11:22:34;;;;;;;0.50;0.30;;;18.70;68.10;;;;;;5010279;28;20037;-12
2022/11/10 11:25:38;;;;;;;0.45;0.40;;;18.60;68.00;;;;;;5005508;28;20557;-17
2022/11/10 11:28:29;;;;;;;0.43;0.38;;;18.70;68.00;;;;;;5024174;28;20036;-14
2022/11/10 11:31:06;;;;;;;1.40;0.30;;;18.70;68.00;;;;;;5026620;28;20080;-12
2022/11/10 11:33:35;;;;;;;0.40;0.30;;;18.70;68.00;;;;;;5009811;28;20045;-13
2022/11/10 11:36:11;;;;;;;0.43;0.43;;;18.70;68.00;;;;;;5010645;28;20129;-14
2022/11/10 11:38:57;;;;;;;0.40;0.40;;;18.80;68.70;;;;;;5010458;28;20095;-13
2022/11/10 11:41:37;;;;;;;0.50;0.50;;;18.80;67.90;;;;;;5015459;28;20068;-13
2022/11/10 11:44:11;;;;;;;0.30;0.30;;;18.80;67.90;;;;;;5013966;28;20041;-12
2022/11/10 11:46:37;;;;;;;;;;;18.80;67.90;;;;;;5035841;28;20049;-13
2022/11/10 11:49:32;;;;;;;0.70;0.70;;;18.80;67.90;;;;;;5022102;28;20455;-13
2022/11/10 11:52:00;;;;;;;;;;;18.80;68.00;;;;;;5009043;28;20046;-13
2022/11/10 11:54:26;;;;;;;0.50;0.50;;;18.80;67.90;;;;;;5020213;28;20004;-13
2022/11/10 11:56:51;;;;;;;0.28;0.28;;;18.70;67.90;;;;;;5012246;28;20057;-14
2022/11/10 11:59:49;;;;;;;0.50;0.50;;;18.80;67.90;;;;;;4997422;28;20049;-15
2022/11/10 12:02:36;;;;;;;0.60;0.60;;;18.90;67.80;;;;;;5015615;28;20564;-12
2022/11/10 12:05:10;;;;;;;0.50;0.50;;;18.80;67.80;;;;;;5013536;28;20068;-12
2022/11/10 12:08:11;;;;;;;0.30;0.30;;;18.90;67.80;;;;;;5017039;28;20120;-12
2022/11/10 12:11:05;;;;;;;0.35;0.30;;;18.90;67.60;;;;;;5012212;28;20637;-12
2022/11/10 12:13:40;;;;;;;0.40;0.40;;;18.90;67.60;;;;;;5009932;28;20525;-13
2022/11/10 12:16:26;;;;;;;0.30;0.30;;;18.90;67.40;;;;;;4995755;28;20049;-22
2022/11/10 12:19:25;;;;;;;0.50;0.40;;;18.90;67.50;;;;;;5012081;28;20045;-13
2022/11/10 12:22:16;;;;;;;0.30;0.30;;;18.90;67.50;;;;;;5000288;28;20132;-12
2022/11/10 12:25:06;;;;;;;0.30;0.30;;;18.90;67.50;;;;;;4999320;28;20092;-12
2022/11/10 12:27:32;;;;;;;0.22;0.20;;;18.90;67.40;;;;;;5011243;28;20052;-12
2022/11/10 12:30:12;;;;;;;0.45;0.30;;;18.90;67.50;;;;;;5017373;28;20140;-15
2022/11/10 12:32:55;;;;;;;0.22;0.22;;;18.90;67.60;;;;;;5022591;28;20042;-15
2022/11/10 12:35:29;;;;;;;0.40;0.40;;;19.00;67.50;;;;;;5019795;28;20410;-15
2022/11/10 12:38:17;;;;;;;0.50;0.40;;;19.00;67.50;;;;;;5015336;28;20045;-15
2022/11/10 12:40:50;;;;;;;0.32;0.30;;;19.10;67.30;;;;;;5015575;28;20049;-15
2022/11/10 12:43:27;;;;;;;0.50;0.50;;;19.00;67.10;;;;;;5035370;28;20172;-14
2022/11/10 12:45:55;;;;;;;0.32;0.32;;;19.00;67.50;;;;;;5010953;28;20068;-15
2022/11/10 12:48:21;;;;;;;0.30;0.30;;;19.00;67.80;;;;;;5016104;28;20571;-14
2022/11/10 12:50:57;;;;;;;0.50;0.32;;;18.90;67.90;;;;;;5034776;28;20591;-15
2022/11/10 12:53:28;;;;;;;0.40;0.40;;;18.90;68.00;;;;;;5012379;28;20049;-15
2022/11/10 12:55:55;;;;;;;0.30;0.30;;;18.90;68.00;;;;;;5032832;28;20057;-12
2022/11/10 12:58:21;;;;;;;0.47;0.47;;;18.90;68.00;;;;;;5015604;28;20410;-12
2022/11/10 13:01:04;;;;;;;0.82;0.50;;;18.90;68.80;;;;;;5021333;28;20048;-12
2022/11/10 13:03:33;;;;;;;0.68;0.50;;;18.90;68.20;;;;;;5021158;28;20045;-13
2022/11/10 13:06:03;;;;;;;1.58;0.52;;;18.90;68.20;;;;;;5011702;28;20561;-12
2022/11/10 13:08:41;;;;;;;0.88;0.40;;;19.00;68.30;;;;;;5016510;28;20466;-12
2022/11/10 13:11:17;;;;;;;0.40;0.30;;;18.90;69.40;;;;;;5024592;28;20050;-12